Charter Quote
Worldwide +1-877-727-2538 Call
Select Language Lang
SAFETY RELIABILITY EXPERIENCE

Private Jet Charter Services - Luoyang Airport (ZHLY)

Paramount Business Jets offers private jet charter flights and luxury airliner charters to and from Luoyang Airport.

AIRPORT INFORMATION
ICAOZHLY
IATALYA
LOCATIONLuoyang, China
FACILITY TYPEAIRPORT

At Paramount Business Jets you can hire chartered private jets to and from Luoyang Airport with as little as 4 hours of notice. All flights booked via Paramount Business Jets are operated by certified direct air carriers that meet and exceed the FAA part 135 and 121 protocol or a foreign equivalent safety authority. Furthermore, Paramount Business Jets subscribes to ARGUS for their third party safety checks of operators, aircraft, and crews prior each and every flight to and from Luoyang Airport and worldwide.

  • Quote a trip using Luoyang Airport or call us 24/7 - 365 days a year at +1-877-727-2538.
Questions? Call +1-877-727-2538

METAR Weather Data at Luoyang Airport, ZHLY, LYA

STATIONZHLY
OBSERVEDWed Oct 2, 02:30 UTC
NOWMon Oct 21, 21:23 UTC
AGE474:53 hr ago
WINDvaries at 4 mph
VISIBILITY13 miles
METARZHLY 020230Z VRB02MPS 8000 NSC 26/15 Q1015 NOSIG

Call us on +1-877-727-2538 (24 Hours) to Hire a Private Jet or Get a Quick Quote.

Find Airports Near any Location

Processing
...